sensor_id;sensor_type;location;lat;lon;timestamp;P1;durP1;ratioP1;P2;durP2;ratioP2
36855;SDS011;22788;51.434;6.786;2023-02-13T00:00:57;14.40;;;9.53;;
36855;SDS011;22788;51.434;6.786;2023-02-13T00:03:23;16.20;;;8.47;;
36855;SDS011;22788;51.434;6.786;2023-02-13T00:05:49;13.13;;;8.97;;
36855;SDS011;22788;51.434;6.786;2023-02-13T00:08:16;13.23;;;9.13;;
36855;SDS011;22788;51.434;6.786;2023-02-13T00:10:42;14.37;;;9.00;;
36855;SDS011;22788;51.434;6.786;2023-02-13T00:13:08;14.83;;;9.63;;
36855;SDS011;22788;51.434;6.786;2023-02-13T00:15:35;12.87;;;8.10;;
36855;SDS011;22788;51.434;6.786;2023-02-13T00:18:01;15.10;;;8.87;;
36855;SDS011;22788;51.434;6.786;2023-02-13T00:20:27;12.13;;;8.70;;
36855;SDS011;22788;51.434;6.786;2023-02-13T00:22:53;13.13;;;8.53;;
36855;SDS011;22788;51.434;6.786;2023-02-13T00:25:21;12.67;;;7.53;;
36855;SDS011;22788;51.434;6.786;2023-02-13T00:27:47;12.90;;;9.00;;
36855;SDS011;22788;51.434;6.786;2023-02-13T00:30:15;11.30;;;8.33;;
36855;SDS011;22788;51.434;6.786;2023-02-13T00:32:41;13.70;;;9.03;;
36855;SDS011;22788;51.434;6.786;2023-02-13T00:35:07;12.03;;;8.23;;
36855;SDS011;22788;51.434;6.786;2023-02-13T00:37:33;13.30;;;8.70;;
36855;SDS011;22788;51.434;6.786;2023-02-13T00:39:59;13.80;;;8.20;;
36855;SDS011;22788;51.434;6.786;2023-02-13T00:42:27;12.27;;;8.73;;
36855;SDS011;22788;51.434;6.786;2023-02-13T00:44:53;14.33;;;8.83;;
36855;SDS011;22788;51.434;6.786;2023-02-13T00:47:19;15.47;;;8.47;;
36855;SDS011;22788;51.434;6.786;2023-02-13T00:49:46;14.23;;;8.80;;
36855;SDS011;22788;51.434;6.786;2023-02-13T00:52:12;13.67;;;8.40;;
36855;SDS011;22788;51.434;6.786;2023-02-13T00:54:38;13.77;;;8.17;;
36855;SDS011;22788;51.434;6.786;2023-02-13T00:57:04;14.47;;;9.03;;
36855;SDS011;22788;51.434;6.786;2023-02-13T00:59:32;13.43;;;8.60;;
36855;SDS011;22788;51.434;6.786;2023-02-13T01:01:58;13.87;;;8.60;;
36855;SDS011;22788;51.434;6.786;2023-02-13T01:04:24;12.13;;;7.70;;
36855;SDS011;22788;51.434;6.786;2023-02-13T01:06:50;13.63;;;8.73;;
36855;SDS011;22788;51.434;6.786;2023-02-13T01:09:16;16.13;;;9.23;;
36855;SDS011;22788;51.434;6.786;2023-02-13T01:11:42;12.87;;;8.33;;
36855;SDS011;22788;51.434;6.786;2023-02-13T01:14:08;11.27;;;8.23;;
36855;SDS011;22788;51.434;6.786;2023-02-13T01:16:35;11.43;;;7.27;;
36855;SDS011;22788;51.434;6.786;2023-02-13T01:19:01;9.97;;;7.07;;
36855;SDS011;22788;51.434;6.786;2023-02-13T01:21:29;10.77;;;7.50;;
36855;SDS011;22788;51.434;6.786;2023-02-13T01:23:55;12.23;;;7.43;;
36855;SDS011;22788;51.434;6.786;2023-02-13T01:26:22;10.67;;;7.40;;
36855;SDS011;22788;51.434;6.786;2023-02-13T01:28:50;10.43;;;6.63;;
36855;SDS011;22788;51.434;6.786;2023-02-13T01:31:17;10.23;;;6.53;;
36855;SDS011;22788;51.434;6.786;2023-02-13T01:33:45;9.07;;;6.60;;
36855;SDS011;22788;51.434;6.786;2023-02-13T01:36:11;12.43;;;7.10;;
36855;SDS011;22788;51.434;6.786;2023-02-13T01:38:37;11.73;;;7.60;;
36855;SDS011;22788;51.434;6.786;2023-02-13T01:41:04;10.37;;;6.90;;
36855;SDS011;22788;51.434;6.786;2023-02-13T01:43:47;11.00;;;6.73;;
36855;SDS011;22788;51.434;6.786;2023-02-13T01:46:15;13.20;;;6.90;;
36855;SDS011;22788;51.434;6.786;2023-02-13T01:48:45;11.13;;;6.70;;
36855;SDS011;22788;51.434;6.786;2023-02-13T01:51:13;10.10;;;7.37;;
36855;SDS011;22788;51.434;6.786;2023-02-13T01:53:44;11.17;;;7.20;;
36855;SDS011;22788;51.434;6.786;2023-02-13T01:56:14;11.10;;;6.87;;
36855;SDS011;22788;51.434;6.786;2023-02-13T01:58:46;12.13;;;7.43;;
36855;SDS011;22788;51.434;6.786;2023-02-13T02:01:15;11.03;;;6.80;;
36855;SDS011;22788;51.434;6.786;2023-02-13T02:03:42;9.83;;;6.67;;
36855;SDS011;22788;51.434;6.786;2023-02-13T02:06:15;12.20;;;7.83;;
36855;SDS011;22788;51.434;6.786;2023-02-13T02:08:44;10.20;;;7.50;;
36855;SDS011;22788;51.434;6.786;2023-02-13T02:11:14;12.87;;;7.30;;
36855;SDS011;22788;51.434;6.786;2023-02-13T02:13:44;11.03;;;6.30;;
36855;SDS011;22788;51.434;6.786;2023-02-13T02:16:11;10.37;;;7.07;;
36855;SDS011;22788;51.434;6.786;2023-02-13T02:18:37;10.93;;;7.17;;
36855;SDS011;22788;51.434;6.786;2023-02-13T02:21:13;10.37;;;7.17;;
36855;SDS011;22788;51.434;6.786;2023-02-13T02:27:13;9.20;;;6.50;;
36855;SDS011;22788;51.434;6.786;2023-02-13T02:30:09;13.13;;;7.80;;
36855;SDS011;22788;51.434;6.786;2023-02-13T02:35:39;10.53;;;7.37;;
36855;SDS011;22788;51.434;6.786;2023-02-13T02:38:13;12.90;;;7.40;;
36855;SDS011;22788;51.434;6.786;2023-02-13T02:40:51;9.93;;;6.53;;
36855;SDS011;22788;51.434;6.786;2023-02-13T02:43:32;10.77;;;6.63;;
36855;SDS011;22788;51.434;6.786;2023-02-13T02:46:10;9.30;;;6.27;;
36855;SDS011;22788;51.434;6.786;2023-02-13T02:48:43;10.90;;;6.93;;
36855;SDS011;22788;51.434;6.786;2023-02-13T02:51:17;11.40;;;7.20;;
36855;SDS011;22788;51.434;6.786;2023-02-13T02:53:50;8.13;;;5.93;;
36855;SDS011;22788;51.434;6.786;2023-02-13T02:56:26;12.83;;;7.67;;
36855;SDS011;22788;51.434;6.786;2023-02-13T02:58:59;9.87;;;6.43;;
36855;SDS011;22788;51.434;6.786;2023-02-13T03:01:29;10.20;;;6.87;;
36855;SDS011;22788;51.434;6.786;2023-02-13T03:04:00;11.03;;;7.10;;
36855;SDS011;22788;51.434;6.786;2023-02-13T03:06:29;11.57;;;7.13;;
36855;SDS011;22788;51.434;6.786;2023-02-13T03:09:01;8.77;;;5.43;;
36855;SDS011;22788;51.434;6.786;2023-02-13T03:11:31;11.00;;;7.20;;
36855;SDS011;22788;51.434;6.786;2023-02-13T03:13:57;9.43;;;5.90;;
36855;SDS011;22788;51.434;6.786;2023-02-13T03:16:25;8.80;;;6.00;;
36855;SDS011;22788;51.434;6.786;2023-02-13T03:18:52;10.03;;;6.30;;
36855;SDS011;22788;51.434;6.786;2023-02-13T03:21:26;10.00;;;6.43;;
36855;SDS011;22788;51.434;6.786;2023-02-13T03:24:03;11.30;;;6.90;;
36855;SDS011;22788;51.434;6.786;2023-02-13T03:26:36;9.67;;;6.43;;
36855;SDS011;22788;51.434;6.786;2023-02-13T03:29:12;7.97;;;5.93;;
36855;SDS011;22788;51.434;6.786;2023-02-13T03:31:46;9.13;;;6.10;;
36855;SDS011;22788;51.434;6.786;2023-02-13T03:34:19;8.60;;;6.07;;
36855;SDS011;22788;51.434;6.786;2023-02-13T03:36:50;7.40;;;5.70;;
36855;SDS011;22788;51.434;6.786;2023-02-13T03:39:26;9.40;;;5.60;;
36855;SDS011;22788;51.434;6.786;2023-02-13T03:41:59;10.73;;;5.77;;
36855;SDS011;22788;51.434;6.786;2023-02-13T03:44:29;7.80;;;5.40;;
36855;SDS011;22788;51.434;6.786;2023-02-13T03:46:58;8.13;;;5.63;;
36855;SDS011;22788;51.434;6.786;2023-02-13T03:49:27;8.47;;;5.80;;
36855;SDS011;22788;51.434;6.786;2023-02-13T03:51:59;7.70;;;5.30;;
36855;SDS011;22788;51.434;6.786;2023-02-13T03:54:31;8.50;;;5.50;;
36855;SDS011;22788;51.434;6.786;2023-02-13T03:57:01;7.17;;;5.27;;
36855;SDS011;22788;51.434;6.786;2023-02-13T03:59:28;8.17;;;5.50;;
36855;SDS011;22788;51.434;6.786;2023-02-13T04:01:58;8.10;;;5.67;;
36855;SDS011;22788;51.434;6.786;2023-02-13T04:04:30;8.67;;;5.37;;
36855;SDS011;22788;51.434;6.786;2023-02-13T04:07:06;9.50;;;5.63;;
36855;SDS011;22788;51.434;6.786;2023-02-13T04:09:35;7.20;;;5.17;;
36855;SDS011;22788;51.434;6.786;2023-02-13T04:12:06;7.43;;;5.57;;
36855;SDS011;22788;51.434;6.786;2023-02-13T04:14:39;9.40;;;5.13;;
36855;SDS011;22788;51.434;6.786;2023-02-13T04:17:12;6.50;;;4.67;;
36855;SDS011;22788;51.434;6.786;2023-02-13T04:19:44;10.00;;;5.73;;
36855;SDS011;22788;51.434;6.786;2023-02-13T04:22:11;8.20;;;5.43;;
36855;SDS011;22788;51.434;6.786;2023-02-13T04:24:38;9.53;;;5.83;;
36855;SDS011;22788;51.434;6.786;2023-02-13T04:27:04;8.57;;;5.90;;
36855;SDS011;22788;51.434;6.786;2023-02-13T04:29:30;7.40;;;4.83;;
36855;SDS011;22788;51.434;6.786;2023-02-13T04:31:56;8.23;;;5.77;;
36855;SDS011;22788;51.434;6.786;2023-02-13T04:34:22;8.10;;;5.20;;
36855;SDS011;22788;51.434;6.786;2023-02-13T04:36:48;8.70;;;5.37;;
36855;SDS011;22788;51.434;6.786;2023-02-13T04:39:15;8.80;;;5.27;;
36855;SDS011;22788;51.434;6.786;2023-02-13T04:41:41;10.53;;;5.80;;
36855;SDS011;22788;51.434;6.786;2023-02-13T04:44:07;8.60;;;5.33;;
36855;SDS011;22788;51.434;6.786;2023-02-13T04:46:33;8.07;;;5.50;;
36855;SDS011;22788;51.434;6.786;2023-02-13T04:48:59;8.73;;;5.27;;
36855;SDS011;22788;51.434;6.786;2023-02-13T04:51:26;8.70;;;5.40;;
36855;SDS011;22788;51.434;6.786;2023-02-13T04:53:52;9.67;;;6.00;;
36855;SDS011;22788;51.434;6.786;2023-02-13T04:56:19;8.33;;;5.33;;
36855;SDS011;22788;51.434;6.786;2023-02-13T04:58:45;7.70;;;5.10;;
36855;SDS011;22788;51.434;6.786;2023-02-13T05:01:11;10.27;;;6.07;;
36855;SDS011;22788;51.434;6.786;2023-02-13T05:03:38;7.27;;;5.53;;
36855;SDS011;22788;51.434;6.786;2023-02-13T05:06:04;8.70;;;5.13;;
36855;SDS011;22788;51.434;6.786;2023-02-13T05:08:30;7.73;;;5.40;;
36855;SDS011;22788;51.434;6.786;2023-02-13T05:10:56;8.20;;;4.67;;
36855;SDS011;22788;51.434;6.786;2023-02-13T05:13:24;8.53;;;5.93;;
36855;SDS011;22788;51.434;6.786;2023-02-13T05:15:50;10.27;;;5.90;;
36855;SDS011;22788;51.434;6.786;2023-02-13T05:18:16;8.43;;;5.33;;
36855;SDS011;22788;51.434;6.786;2023-02-13T05:20:42;8.87;;;5.87;;
36855;SDS011;22788;51.434;6.786;2023-02-13T05:23:08;10.67;;;6.13;;
36855;SDS011;22788;51.434;6.786;2023-02-13T05:25:39;7.07;;;4.43;;
36855;SDS011;22788;51.434;6.786;2023-02-13T05:28:06;8.20;;;4.70;;
36855;SDS011;22788;51.434;6.786;2023-02-13T05:30:33;9.97;;;6.43;;
36855;SDS011;22788;51.434;6.786;2023-02-13T05:32:59;9.00;;;4.97;;
36855;SDS011;22788;51.434;6.786;2023-02-13T05:35:25;7.07;;;5.00;;
36855;SDS011;22788;51.434;6.786;2023-02-13T05:37:51;8.23;;;5.30;;
36855;SDS011;22788;51.434;6.786;2023-02-13T05:40:18;8.70;;;5.57;;
36855;SDS011;22788;51.434;6.786;2023-02-13T05:42:44;7.77;;;4.87;;
36855;SDS011;22788;51.434;6.786;2023-02-13T05:45:10;7.20;;;4.87;;
36855;SDS011;22788;51.434;6.786;2023-02-13T05:47:37;6.47;;;4.50;;
36855;SDS011;22788;51.434;6.786;2023-02-13T05:50:04;8.67;;;5.80;;
36855;SDS011;22788;51.434;6.786;2023-02-13T05:52:31;7.70;;;5.30;;
36855;SDS011;22788;51.434;6.786;2023-02-13T05:54:57;7.77;;;4.87;;
36855;SDS011;22788;51.434;6.786;2023-02-13T05:57:23;6.27;;;4.80;;
36855;SDS011;22788;51.434;6.786;2023-02-13T05:59:49;7.07;;;4.60;;
36855;SDS011;22788;51.434;6.786;2023-02-13T06:02:15;8.73;;;6.00;;
36855;SDS011;22788;51.434;6.786;2023-02-13T06:04:42;6.20;;;4.63;;
36855;SDS011;22788;51.434;6.786;2023-02-13T06:07:08;7.17;;;5.27;;
36855;SDS011;22788;51.434;6.786;2023-02-13T06:09:34;7.10;;;5.23;;
36855;SDS011;22788;51.434;6.786;2023-02-13T06:12:00;7.57;;;4.97;;
36855;SDS011;22788;51.434;6.786;2023-02-13T06:14:26;6.90;;;5.20;;
36855;SDS011;22788;51.434;6.786;2023-02-13T06:16:52;7.60;;;5.30;;
36855;SDS011;22788;51.434;6.786;2023-02-13T06:19:18;5.77;;;4.50;;
36855;SDS011;22788;51.434;6.786;2023-02-13T06:21:46;7.67;;;5.17;;
36855;SDS011;22788;51.434;6.786;2023-02-13T06:24:12;8.03;;;5.00;;
36855;SDS011;22788;51.434;6.786;2023-02-13T06:26:38;8.40;;;5.30;;
36855;SDS011;22788;51.434;6.786;2023-02-13T06:29:04;8.43;;;5.13;;
36855;SDS011;22788;51.434;6.786;2023-02-13T06:31:30;7.60;;;5.40;;
36855;SDS011;22788;51.434;6.786;2023-02-13T06:33:56;9.00;;;5.30;;
36855;SDS011;22788;51.434;6.786;2023-02-13T06:36:22;12.27;;;5.70;;
36855;SDS011;22788;51.434;6.786;2023-02-13T06:38:49;8.33;;;5.50;;
36855;SDS011;22788;51.434;6.786;2023-02-13T06:41:15;7.53;;;5.27;;
36855;SDS011;22788;51.434;6.786;2023-02-13T06:43:41;5.80;;;4.57;;
36855;SDS011;22788;51.434;6.786;2023-02-13T06:46:07;6.50;;;4.93;;
36855;SDS011;22788;51.434;6.786;2023-02-13T06:48:33;7.77;;;5.17;;
36855;SDS011;22788;51.434;6.786;2023-02-13T06:51:00;8.27;;;5.67;;
36855;SDS011;22788;51.434;6.786;2023-02-13T06:53:26;7.27;;;5.20;;
36855;SDS011;22788;51.434;6.786;2023-02-13T06:55:54;8.93;;;5.03;;
36855;SDS011;22788;51.434;6.786;2023-02-13T06:58:21;6.90;;;4.90;;
36855;SDS011;22788;51.434;6.786;2023-02-13T07:00:48;7.80;;;5.27;;
36855;SDS011;22788;51.434;6.786;2023-02-13T07:03:14;9.90;;;5.07;;
36855;SDS011;22788;51.434;6.786;2023-02-13T07:05:41;7.13;;;5.13;;
36855;SDS011;22788;51.434;6.786;2023-02-13T07:08:07;8.53;;;5.40;;
36855;SDS011;22788;51.434;6.786;2023-02-13T07:10:35;8.27;;;5.47;;
36855;SDS011;22788;51.434;6.786;2023-02-13T07:13:03;8.77;;;5.13;;
36855;SDS011;22788;51.434;6.786;2023-02-13T07:15:29;8.53;;;5.43;;
36855;SDS011;22788;51.434;6.786;2023-02-13T07:17:55;8.17;;;4.97;;
36855;SDS011;22788;51.434;6.786;2023-02-13T07:20:21;8.57;;;5.30;;
36855;SDS011;22788;51.434;6.786;2023-02-13T07:22:48;7.77;;;5.23;;
36855;SDS011;22788;51.434;6.786;2023-02-13T07:25:14;7.93;;;5.30;;
36855;SDS011;22788;51.434;6.786;2023-02-13T07:27:40;8.03;;;5.33;;
36855;SDS011;22788;51.434;6.786;2023-02-13T07:30:08;7.87;;;5.57;;
36855;SDS011;22788;51.434;6.786;2023-02-13T07:32:34;10.37;;;5.60;;
36855;SDS011;22788;51.434;6.786;2023-02-13T07:35:00;6.50;;;4.50;;
36855;SDS011;22788;51.434;6.786;2023-02-13T07:37:26;8.23;;;5.80;;
36855;SDS011;22788;51.434;6.786;2023-02-13T07:39:53;8.90;;;5.80;;
36855;SDS011;22788;51.434;6.786;2023-02-13T07:42:19;5.97;;;4.93;;
36855;SDS011;22788;51.434;6.786;2023-02-13T07:44:45;9.23;;;5.93;;
36855;SDS011;22788;51.434;6.786;2023-02-13T07:47:12;10.17;;;5.50;;
36855;SDS011;22788;51.434;6.786;2023-02-13T07:49:38;9.50;;;5.77;;
36855;SDS011;22788;51.434;6.786;2023-02-13T07:52:04;9.80;;;5.97;;
36855;SDS011;22788;51.434;6.786;2023-02-13T07:54:31;7.80;;;5.53;;
36855;SDS011;22788;51.434;6.786;2023-02-13T07:56:57;10.20;;;7.40;;
36855;SDS011;22788;51.434;6.786;2023-02-13T07:59:24;9.03;;;5.67;;
36855;SDS011;22788;51.434;6.786;2023-02-13T08:01:50;8.77;;;5.30;;
36855;SDS011;22788;51.434;6.786;2023-02-13T08:04:17;8.67;;;6.10;;
36855;SDS011;22788;51.434;6.786;2023-02-13T08:06:43;9.30;;;5.77;;
36855;SDS011;22788;51.434;6.786;2023-02-13T08:09:12;11.23;;;7.10;;
36855;SDS011;22788;51.434;6.786;2023-02-13T08:11:43;8.90;;;6.13;;
36855;SDS011;22788;51.434;6.786;2023-02-13T08:14:09;9.23;;;6.10;;
36855;SDS011;22788;51.434;6.786;2023-02-13T08:16:35;11.60;;;6.80;;
36855;SDS011;22788;51.434;6.786;2023-02-13T08:19:01;9.30;;;5.90;;
36855;SDS011;22788;51.434;6.786;2023-02-13T08:21:29;11.03;;;6.40;;
36855;SDS011;22788;51.434;6.786;2023-02-13T08:23:55;7.53;;;5.00;;
36855;SDS011;22788;51.434;6.786;2023-02-13T08:26:21;8.97;;;5.63;;
36855;SDS011;22788;51.434;6.786;2023-02-13T08:28:47;8.73;;;6.00;;
36855;SDS011;22788;51.434;6.786;2023-02-13T08:31:13;10.23;;;6.30;;
36855;SDS011;22788;51.434;6.786;2023-02-13T08:33:39;10.93;;;7.67;;
36855;SDS011;22788;51.434;6.786;2023-02-13T08:36:06;11.70;;;7.47;;
36855;SDS011;22788;51.434;6.786;2023-02-13T08:38:33;9.67;;;6.00;;
36855;SDS011;22788;51.434;6.786;2023-02-13T08:40:59;11.07;;;6.30;;
36855;SDS011;22788;51.434;6.786;2023-02-13T08:43:26;9.07;;;6.13;;
36855;SDS011;22788;51.434;6.786;2023-02-13T08:45:52;9.90;;;6.40;;
36855;SDS011;22788;51.434;6.786;2023-02-13T08:48:18;11.33;;;6.60;;
36855;SDS011;22788;51.434;6.786;2023-02-13T08:50:44;9.00;;;5.63;;
36855;SDS011;22788;51.434;6.786;2023-02-13T08:53:10;8.03;;;5.70;;
36855;SDS011;22788;51.434;6.786;2023-02-13T08:55:37;9.60;;;6.97;;
36855;SDS011;22788;51.434;6.786;2023-02-13T08:58:03;8.77;;;6.43;;
36855;SDS011;22788;51.434;6.786;2023-02-13T09:00:30;8.63;;;5.33;;
36855;SDS011;22788;51.434;6.786;2023-02-13T09:02:58;9.17;;;5.37;;
36855;SDS011;22788;51.434;6.786;2023-02-13T09:05:25;8.17;;;6.10;;
36855;SDS011;22788;51.434;6.786;2023-02-13T09:07:52;10.00;;;6.00;;
36855;SDS011;22788;51.434;6.786;2023-02-13T09:10:18;9.63;;;6.90;;
36855;SDS011;22788;51.434;6.786;2023-02-13T09:12:49;6.37;;;4.53;;
36855;SDS011;22788;51.434;6.786;2023-02-13T09:15:16;9.03;;;6.20;;
36855;SDS011;22788;51.434;6.786;2023-02-13T09:17:43;13.57;;;7.13;;
36855;SDS011;22788;51.434;6.786;2023-02-13T09:20:09;9.17;;;6.20;;
36855;SDS011;22788;51.434;6.786;2023-02-13T09:22:36;8.70;;;5.57;;
36855;SDS011;22788;51.434;6.786;2023-02-13T09:25:02;9.20;;;6.00;;
36855;SDS011;22788;51.434;6.786;2023-02-13T09:27:28;10.20;;;6.27;;
36855;SDS011;22788;51.434;6.786;2023-02-13T09:29:56;9.07;;;5.73;;
36855;SDS011;22788;51.434;6.786;2023-02-13T09:32:22;9.30;;;6.00;;
36855;SDS011;22788;51.434;6.786;2023-02-13T09:34:55;7.93;;;5.37;;
36855;SDS011;22788;51.434;6.786;2023-02-13T09:37:21;9.97;;;5.77;;
36855;SDS011;22788;51.434;6.786;2023-02-13T09:39:47;10.80;;;7.50;;
36855;SDS011;22788;51.434;6.786;2023-02-13T09:42:15;8.63;;;5.90;;
36855;SDS011;22788;51.434;6.786;2023-02-13T09:44:44;10.80;;;6.00;;
36855;SDS011;22788;51.434;6.786;2023-02-13T09:47:14;10.57;;;7.10;;
36855;SDS011;22788;51.434;6.786;2023-02-13T09:49:47;8.60;;;6.43;;
36855;SDS011;22788;51.434;6.786;2023-02-13T09:52:17;9.13;;;5.57;;
36855;SDS011;22788;51.434;6.786;2023-02-13T09:54:43;7.90;;;6.10;;
36855;SDS011;22788;51.434;6.786;2023-02-13T09:57:12;8.07;;;5.27;;
36855;SDS011;22788;51.434;6.786;2023-02-13T09:59:53;8.07;;;6.27;;
36855;SDS011;22788;51.434;6.786;2023-02-13T10:02:34;10.30;;;6.33;;
36855;SDS011;22788;51.434;6.786;2023-02-13T10:05:22;9.87;;;6.00;;
36855;SDS011;22788;51.434;6.786;2023-02-13T10:08:00;17.00;;;7.43;;
36855;SDS011;22788;51.434;6.786;2023-02-13T10:10:31;6.70;;;4.83;;
36855;SDS011;22788;51.434;6.786;2023-02-13T10:13:12;8.83;;;4.67;;
36855;SDS011;22788;51.434;6.786;2023-02-13T10:15:47;9.53;;;6.30;;
36855;SDS011;22788;51.434;6.786;2023-02-13T10:18:20;8.50;;;6.17;;
36855;SDS011;22788;51.434;6.786;2023-02-13T10:20:50;9.40;;;6.57;;
36855;SDS011;22788;51.434;6.786;2023-02-13T10:23:21;9.63;;;6.53;;
36855;SDS011;22788;51.434;6.786;2023-02-13T10:25:52;10.47;;;7.40;;
36855;SDS011;22788;51.434;6.786;2023-02-13T10:28:25;11.07;;;6.50;;
36855;SDS011;22788;51.434;6.786;2023-02-13T10:30:55;7.47;;;4.93;;
36855;SDS011;22788;51.434;6.786;2023-02-13T10:33:28;9.73;;;6.10;;
36855;SDS011;22788;51.434;6.786;2023-02-13T10:36:03;7.10;;;4.87;;
36855;SDS011;22788;51.434;6.786;2023-02-13T10:38:38;8.50;;;6.23;;
36855;SDS011;22788;51.434;6.786;2023-02-13T10:41:24;10.50;;;6.50;;
36855;SDS011;22788;51.434;6.786;2023-02-13T10:44:00;8.73;;;5.10;;
36855;SDS011;22788;51.434;6.786;2023-02-13T10:46:39;9.10;;;6.10;;
36855;SDS011;22788;51.434;6.786;2023-02-13T10:52:11;11.53;;;6.40;;
36855;SDS011;22788;51.434;6.786;2023-02-13T10:54:49;7.70;;;5.90;;
36855;SDS011;22788;51.434;6.786;2023-02-13T10:57:26;8.60;;;5.80;;
36855;SDS011;22788;51.434;6.786;2023-02-13T11:00:03;9.43;;;6.13;;
36855;SDS011;22788;51.434;6.786;2023-02-13T11:02:34;7.63;;;4.90;;
36855;SDS011;22788;51.434;6.786;2023-02-13T11:05:09;8.20;;;5.50;;
36855;SDS011;22788;51.434;6.786;2023-02-13T11:07:41;8.73;;;5.80;;
36855;SDS011;22788;51.434;6.786;2023-02-13T11:10:12;9.47;;;5.83;;
36855;SDS011;22788;51.434;6.786;2023-02-13T11:12:41;7.47;;;5.07;;
36855;SDS011;22788;51.434;6.786;2023-02-13T11:15:14;10.10;;;6.43;;
36855;SDS011;22788;51.434;6.786;2023-02-13T11:17:46;11.73;;;6.37;;
36855;SDS011;22788;51.434;6.786;2023-02-13T11:20:24;10.33;;;6.27;;
36855;SDS011;22788;51.434;6.786;2023-02-13T11:22:54;9.87;;;6.23;;
36855;SDS011;22788;51.434;6.786;2023-02-13T11:25:22;7.93;;;5.53;;
36855;SDS011;22788;51.434;6.786;2023-02-13T11:27:50;8.00;;;5.97;;
36855;SDS011;22788;51.434;6.786;2023-02-13T11:30:29;7.97;;;6.07;;
36855;SDS011;22788;51.434;6.786;2023-02-13T11:32:58;7.33;;;5.30;;
36855;SDS011;22788;51.434;6.786;2023-02-13T11:35:28;7.00;;;4.87;;
36855;SDS011;22788;51.434;6.786;2023-02-13T11:40:47;8.20;;;5.50;;
36855;SDS011;22788;51.434;6.786;2023-02-13T11:43:16;7.50;;;5.40;;
36855;SDS011;22788;51.434;6.786;2023-02-13T11:45:58;8.10;;;4.87;;
36855;SDS011;22788;51.434;6.786;2023-02-13T11:48:26;8.23;;;4.97;;
36855;SDS011;22788;51.434;6.786;2023-02-13T11:50:53;6.97;;;5.00;;
36855;SDS011;22788;51.434;6.786;2023-02-13T11:53:20;10.03;;;5.23;;
36855;SDS011;22788;51.434;6.786;2023-02-13T11:55:59;6.17;;;5.00;;
36855;SDS011;22788;51.434;6.786;2023-02-13T11:58:27;9.73;;;7.00;;
36855;SDS011;22788;51.434;6.786;2023-02-13T12:01:06;11.13;;;7.67;;
36855;SDS011;22788;51.434;6.786;2023-02-13T12:03:33;9.87;;;5.63;;
36855;SDS011;22788;51.434;6.786;2023-02-13T12:06:02;8.23;;;5.63;;
36855;SDS011;22788;51.434;6.786;2023-02-13T12:08:29;9.80;;;6.43;;
36855;SDS011;22788;51.434;6.786;2023-02-13T12:10:57;7.20;;;5.50;;
36855;SDS011;22788;51.434;6.786;2023-02-13T12:13:26;7.30;;;5.30;;
36855;SDS011;22788;51.434;6.786;2023-02-13T12:15:58;9.77;;;5.73;;
36855;SDS011;22788;51.434;6.786;2023-02-13T12:18:27;9.87;;;6.40;;
36855;SDS011;22788;51.434;6.786;2023-02-13T12:20:59;6.53;;;5.30;;
36855;SDS011;22788;51.434;6.786;2023-02-13T12:23:32;8.90;;;5.73;;
36855;SDS011;22788;51.434;6.786;2023-02-13T12:26:09;8.35;;;5.75;;
36855;SDS011;22788;51.434;6.786;2023-02-13T12:28:41;10.23;;;6.27;;
36855;SDS011;22788;51.434;6.786;2023-02-13T12:31:18;10.80;;;6.63;;
36855;SDS011;22788;51.434;6.786;2023-02-13T12:40:30;12.13;;;8.18;;
36855;SDS011;22788;51.434;6.786;2023-02-13T12:43:13;10.93;;;5.60;;
36855;SDS011;22788;51.434;6.786;2023-02-13T12:45:55;11.00;;;5.87;;
36855;SDS011;22788;51.434;6.786;2023-02-13T12:48:28;9.60;;;6.30;;
36855;SDS011;22788;51.434;6.786;2023-02-13T12:51:06;17.00;;;9.02;;
36855;SDS011;22788;51.434;6.786;2023-02-13T12:54:01;9.73;;;6.33;;
36855;SDS011;22788;51.434;6.786;2023-02-13T12:56:45;12.13;;;8.52;;
36855;SDS011;22788;51.434;6.786;2023-02-13T12:59:20;11.97;;;7.47;;
36855;SDS011;22788;51.434;6.786;2023-02-13T13:04:49;8.90;;;5.93;;
36855;SDS011;22788;51.434;6.786;2023-02-13T13:07:46;7.50;;;4.93;;
36855;SDS011;22788;51.434;6.786;2023-02-13T13:10:34;10.90;;;6.10;;
36855;SDS011;22788;51.434;6.786;2023-02-13T13:13:13;10.10;;;6.03;;
36855;SDS011;22788;51.434;6.786;2023-02-13T13:15:50;8.23;;;5.30;;
36855;SDS011;22788;51.434;6.786;2023-02-13T13:18:25;9.03;;;6.00;;
36855;SDS011;22788;51.434;6.786;2023-02-13T13:21:11;7.73;;;5.87;;
36855;SDS011;22788;51.434;6.786;2023-02-13T13:23:51;11.30;;;5.73;;
36855;SDS011;22788;51.434;6.786;2023-02-13T13:26:23;7.83;;;5.10;;
36855;SDS011;22788;51.434;6.786;2023-02-13T13:28:57;8.27;;;5.57;;
36855;SDS011;22788;51.434;6.786;2023-02-13T13:31:26;7.13;;;5.20;;
36855;SDS011;22788;51.434;6.786;2023-02-13T13:33:53;8.07;;;4.97;;
36855;SDS011;22788;51.434;6.786;2023-02-13T13:36:30;6.23;;;5.07;;
36855;SDS011;22788;51.434;6.786;2023-02-13T13:39:04;8.23;;;4.97;;
36855;SDS011;22788;51.434;6.786;2023-02-13T13:41:42;8.13;;;5.63;;
36855;SDS011;22788;51.434;6.786;2023-02-13T13:44:23;10.67;;;5.77;;
36855;SDS011;22788;51.434;6.786;2023-02-13T13:47:03;7.23;;;4.80;;
36855;SDS011;22788;51.434;6.786;2023-02-13T13:49:41;8.87;;;5.40;;
36855;SDS011;22788;51.434;6.786;2023-02-13T13:52:22;8.50;;;5.27;;
36855;SDS011;22788;51.434;6.786;2023-02-13T13:54:50;7.97;;;5.13;;
36855;SDS011;22788;51.434;6.786;2023-02-13T13:57:18;9.20;;;5.33;;
36855;SDS011;22788;51.434;6.786;2023-02-13T14:02:48;8.00;;;4.33;;
36855;SDS011;22788;51.434;6.786;2023-02-13T14:05:20;6.90;;;4.20;;
36855;SDS011;22788;51.434;6.786;2023-02-13T14:07:49;4.77;;;3.97;;
36855;SDS011;22788;51.434;6.786;2023-02-13T14:13:32;5.13;;;4.07;;
36855;SDS011;22788;51.434;6.786;2023-02-13T14:16:01;6.43;;;3.90;;
36855;SDS011;22788;51.434;6.786;2023-02-13T14:18:28;5.60;;;4.03;;
36855;SDS011;22788;51.434;6.786;2023-02-13T14:20:56;6.77;;;4.43;;
36855;SDS011;22788;51.434;6.786;2023-02-13T14:23:35;6.93;;;4.23;;
36855;SDS011;22788;51.434;6.786;2023-02-13T14:26:08;5.43;;;4.03;;
36855;SDS011;22788;51.434;6.786;2023-02-13T14:28:58;7.00;;;4.80;;
36855;SDS011;22788;51.434;6.786;2023-02-13T14:31:39;5.83;;;3.80;;
36855;SDS011;22788;51.434;6.786;2023-02-13T14:34:07;6.03;;;4.07;;
36855;SDS011;22788;51.434;6.786;2023-02-13T14:36:42;5.37;;;3.47;;
36855;SDS011;22788;51.434;6.786;2023-02-13T14:39:16;5.67;;;3.20;;
36855;SDS011;22788;51.434;6.786;2023-02-13T14:41:58;5.03;;;3.17;;
36855;SDS011;22788;51.434;6.786;2023-02-13T14:44:29;5.03;;;3.40;;
36855;SDS011;22788;51.434;6.786;2023-02-13T14:46:58;5.73;;;3.40;;
36855;SDS011;22788;51.434;6.786;2023-02-13T14:49:27;7.03;;;2.97;;
36855;SDS011;22788;51.434;6.786;2023-02-13T14:51:56;5.00;;;2.83;;
36855;SDS011;22788;51.434;6.786;2023-02-13T14:54:26;5.93;;;3.43;;
36855;SDS011;22788;51.434;6.786;2023-02-13T14:56:58;5.57;;;3.20;;
36855;SDS011;22788;51.434;6.786;2023-02-13T14:59:32;5.33;;;2.63;;
36855;SDS011;22788;51.434;6.786;2023-02-13T15:02:01;7.40;;;3.40;;
36855;SDS011;22788;51.434;6.786;2023-02-13T15:04:37;4.60;;;3.40;;
36855;SDS011;22788;51.434;6.786;2023-02-13T15:07:12;5.53;;;3.23;;
36855;SDS011;22788;51.434;6.786;2023-02-13T15:09:40;5.33;;;2.97;;
36855;SDS011;22788;51.434;6.786;2023-02-13T15:12:26;6.67;;;4.23;;
36855;SDS011;22788;51.434;6.786;2023-02-13T15:14:55;4.07;;;3.27;;
36855;SDS011;22788;51.434;6.786;2023-02-13T15:17:22;5.10;;;3.03;;
36855;SDS011;22788;51.434;6.786;2023-02-13T15:19:51;4.47;;;3.10;;
36855;SDS011;22788;51.434;6.786;2023-02-13T15:22:20;3.23;;;2.73;;
36855;SDS011;22788;51.434;6.786;2023-02-13T15:24:54;4.83;;;2.70;;
36855;SDS011;22788;51.434;6.786;2023-02-13T15:27:24;3.00;;;2.67;;